sensor_id;sensor_type;location;lat;lon;timestamp;pressure;altitude;pressure_sealevel;temperature;humidity
47366;BME280;33105;47.964;7.982;2022-12-18T00:02:15;97642.91;;;-11.71;91.24
47366;BME280;33105;47.964;7.982;2022-12-18T00:05:17;97640.28;;;-11.71;92.22
47366;BME280;33105;47.964;7.982;2022-12-18T00:08:19;97623.09;;;-11.51;91.08
47366;BME280;33105;47.964;7.982;2022-12-18T00:11:22;97621.72;;;-11.57;92.13
47366;BME280;33105;47.964;7.982;2022-12-18T00:14:24;97614.78;;;-11.32;92.53
47366;BME280;33105;47.964;7.982;2022-12-18T00:17:26;97616.66;;;-11.09;93.19
47366;BME280;33105;47.964;7.982;2022-12-18T00:20:28;97626.47;;;-10.98;91.72
47366;BME280;33105;47.964;7.982;2022-12-18T00:23:32;97643.25;;;-11.00;91.87
47366;BME280;33105;47.964;7.982;2022-12-18T00:26:36;97655.69;;;-11.27;89.23
47366;BME280;33105;47.964;7.982;2022-12-18T00:29:38;97653.47;;;-11.58;89.68
47366;BME280;33105;47.964;7.982;2022-12-18T00:32:40;97656.84;;;-11.56;91.10
47366;BME280;33105;47.964;7.982;2022-12-18T00:35:42;97662.63;;;-11.77;89.67
47366;BME280;33105;47.964;7.982;2022-12-18T00:38:45;97677.16;;;-11.84;89.75
47366;BME280;33105;47.964;7.982;2022-12-18T00:41:47;97659.38;;;-11.80;90.41
47366;BME280;33105;47.964;7.982;2022-12-18T00:45:08;97650.06;;;-11.73;90.34
47366;BME280;33105;47.964;7.982;2022-12-18T00:48:10;97651.16;;;-11.50;91.40
47366;BME280;33105;47.964;7.982;2022-12-18T00:51:11;97654.13;;;-11.17;91.95
47366;BME280;33105;47.964;7.982;2022-12-18T00:54:15;97644.41;;;-11.04;91.92
47366;BME280;33105;47.964;7.982;2022-12-18T00:57:16;97649.91;;;-10.94;91.18
47366;BME280;33105;47.964;7.982;2022-12-18T01:00:18;97645.66;;;-10.96;90.79
47366;BME280;33105;47.964;7.982;2022-12-18T01:03:20;97666.88;;;-10.98;91.38
47366;BME280;33105;47.964;7.982;2022-12-18T01:06:21;97655.59;;;-11.13;90.50
47366;BME280;33105;47.964;7.982;2022-12-18T01:09:23;97652.75;;;-11.35;90.14
47366;BME280;33105;47.964;7.982;2022-12-18T01:12:28;97658.66;;;-11.19;91.63
47366;BME280;33105;47.964;7.982;2022-12-18T01:15:30;97650.09;;;-11.10;90.59
47366;BME280;33105;47.964;7.982;2022-12-18T01:18:32;97645.78;;;-11.36;90.05
47366;BME280;33105;47.964;7.982;2022-12-18T01:21:34;97644.94;;;-11.24;90.64
47366;BME280;33105;47.964;7.982;2022-12-18T01:24:39;97658.22;;;-11.13;91.48
47366;BME280;33105;47.964;7.982;2022-12-18T01:27:41;97650.63;;;-11.05;91.61
47366;BME280;33105;47.964;7.982;2022-12-18T01:30:43;97654.84;;;-11.02;91.30
47366;BME280;33105;47.964;7.982;2022-12-18T01:33:45;97665.16;;;-10.86;92.21
47366;BME280;33105;47.964;7.982;2022-12-18T01:36:46;97666.66;;;-10.82;91.97
47366;BME280;33105;47.964;7.982;2022-12-18T01:39:48;97667.28;;;-10.79;91.25
47366;BME280;33105;47.964;7.982;2022-12-18T01:42:52;97662.41;;;-10.85;91.36
47366;BME280;33105;47.964;7.982;2022-12-18T01:45:58;97668.22;;;-10.80;91.39
47366;BME280;33105;47.964;7.982;2022-12-18T01:49:01;97668.13;;;-10.78;90.70
47366;BME280;33105;47.964;7.982;2022-12-18T01:52:03;97666.34;;;-10.90;90.51
47366;BME280;33105;47.964;7.982;2022-12-18T01:55:07;97669.22;;;-10.93;90.50
47366;BME280;33105;47.964;7.982;2022-12-18T01:58:09;97678.25;;;-10.85;90.87
47366;BME280;33105;47.964;7.982;2022-12-18T02:01:11;97681.75;;;-10.84;91.37
47366;BME280;33105;47.964;7.982;2022-12-18T02:04:27;97665.81;;;-10.95;90.39
47366;BME280;33105;47.964;7.982;2022-12-18T02:11:13;97677.88;;;-10.91;91.00
47366;BME280;33105;47.964;7.982;2022-12-18T02:14:33;97671.91;;;-10.82;91.66
47366;BME280;33105;47.964;7.982;2022-12-18T02:17:58;97681.00;;;-10.86;91.31
47366;BME280;33105;47.964;7.982;2022-12-18T02:21:29;97691.66;;;-10.75;91.55
47366;BME280;33105;47.964;7.982;2022-12-18T02:24:44;97696.41;;;-10.80;91.49
47366;BME280;33105;47.964;7.982;2022-12-18T02:27:52;97695.59;;;-10.93;90.85
47366;BME280;33105;47.964;7.982;2022-12-18T02:30:58;97689.88;;;-10.87;91.29
47366;BME280;33105;47.964;7.982;2022-12-18T02:34:04;97691.97;;;-10.80;91.26
47366;BME280;33105;47.964;7.982;2022-12-18T02:37:12;97695.69;;;-10.70;91.13
47366;BME280;33105;47.964;7.982;2022-12-18T02:40:17;97690.06;;;-10.65;91.17
47366;BME280;33105;47.964;7.982;2022-12-18T02:43:19;97695.84;;;-10.60;91.47
47366;BME280;33105;47.964;7.982;2022-12-18T02:52:56;97685.13;;;-10.70;90.90
47366;BME280;33105;47.964;7.982;2022-12-18T02:56:21;97680.56;;;-10.68;91.44
47366;BME280;33105;47.964;7.982;2022-12-18T02:59:35;97679.53;;;-10.78;90.79
47366;BME280;33105;47.964;7.982;2022-12-18T03:03:10;97683.22;;;-10.80;91.38
47366;BME280;33105;47.964;7.982;2022-12-18T03:06:21;97669.50;;;-10.85;91.49
47366;BME280;33105;47.964;7.982;2022-12-18T03:09:32;97672.44;;;-10.77;91.39
47366;BME280;33105;47.964;7.982;2022-12-18T03:12:40;97679.19;;;-10.73;91.48
47366;BME280;33105;47.964;7.982;2022-12-18T03:15:47;97675.19;;;-10.79;91.47
47366;BME280;33105;47.964;7.982;2022-12-18T03:18:55;97677.94;;;-10.80;91.54
47366;BME280;33105;47.964;7.982;2022-12-18T03:22:01;97673.53;;;-10.92;91.56
47366;BME280;33105;47.964;7.982;2022-12-18T03:25:16;97675.13;;;-10.90;91.09
47366;BME280;33105;47.964;7.982;2022-12-18T03:28:21;97679.34;;;-11.00;91.21
47366;BME280;33105;47.964;7.982;2022-12-18T03:31:30;97667.31;;;-10.91;90.87
47366;BME280;33105;47.964;7.982;2022-12-18T03:34:40;97680.81;;;-10.96;90.58
47366;BME280;33105;47.964;7.982;2022-12-18T03:37:46;97677.44;;;-10.98;91.85
47366;BME280;33105;47.964;7.982;2022-12-18T03:47:14;97672.06;;;-11.22;90.19
47366;BME280;33105;47.964;7.982;2022-12-18T03:54:09;97681.47;;;-11.18;91.83
47366;BME280;33105;47.964;7.982;2022-12-18T03:57:19;97687.97;;;-11.11;91.96
47366;BME280;33105;47.964;7.982;2022-12-18T04:00:24;97687.88;;;-11.22;91.87
47366;BME280;33105;47.964;7.982;2022-12-18T04:03:35;97693.81;;;-11.18;90.91
47366;BME280;33105;47.964;7.982;2022-12-18T04:06:46;97689.75;;;-11.37;90.64
47366;BME280;33105;47.964;7.982;2022-12-18T04:09:50;97692.31;;;-11.22;91.08
47366;BME280;33105;47.964;7.982;2022-12-18T04:12:57;97692.63;;;-11.27;91.68
47366;BME280;33105;47.964;7.982;2022-12-18T04:16:00;97697.16;;;-11.29;90.53
47366;BME280;33105;47.964;7.982;2022-12-18T04:19:03;97694.94;;;-11.35;90.49
47366;BME280;33105;47.964;7.982;2022-12-18T04:22:11;97686.91;;;-11.34;91.40
47366;BME280;33105;47.964;7.982;2022-12-18T04:25:18;97693.88;;;-11.32;91.32
47366;BME280;33105;47.964;7.982;2022-12-18T04:28:31;97684.19;;;-11.19;91.94
47366;BME280;33105;47.964;7.982;2022-12-18T04:31:33;97678.28;;;-10.97;92.46
47366;BME280;33105;47.964;7.982;2022-12-18T04:34:35;97676.38;;;-10.95;91.82
47366;BME280;33105;47.964;7.982;2022-12-18T04:37:37;97672.06;;;-11.22;91.24
47366;BME280;33105;47.964;7.982;2022-12-18T04:40:40;97674.28;;;-11.03;92.20
47366;BME280;33105;47.964;7.982;2022-12-18T04:43:49;97667.53;;;-10.94;92.42
47366;BME280;33105;47.964;7.982;2022-12-18T04:46:51;97657.94;;;-10.59;92.85
47366;BME280;33105;47.964;7.982;2022-12-18T04:49:53;97663.94;;;-10.44;92.83
47366;BME280;33105;47.964;7.982;2022-12-18T04:52:55;97665.56;;;-10.67;91.06
47366;BME280;33105;47.964;7.982;2022-12-18T04:56:11;97667.91;;;-10.88;90.90
47366;BME280;33105;47.964;7.982;2022-12-18T04:59:14;97675.31;;;-10.93;90.86
47366;BME280;33105;47.964;7.982;2022-12-18T05:02:16;97684.50;;;-10.98;91.22
47366;BME280;33105;47.964;7.982;2022-12-18T05:05:17;97682.28;;;-10.92;92.21
47366;BME280;33105;47.964;7.982;2022-12-18T05:08:19;97685.78;;;-11.04;91.23
47366;BME280;33105;47.964;7.982;2022-12-18T05:11:22;97690.31;;;-10.93;91.93
47366;BME280;33105;47.964;7.982;2022-12-18T05:14:24;97687.34;;;-11.02;91.37
47366;BME280;33105;47.964;7.982;2022-12-18T05:17:25;97681.22;;;-11.02;91.32
47366;BME280;33105;47.964;7.982;2022-12-18T05:20:27;97679.78;;;-11.19;90.72
47366;BME280;33105;47.964;7.982;2022-12-18T05:23:29;97679.56;;;-11.16;91.54
47366;BME280;33105;47.964;7.982;2022-12-18T05:26:31;97682.94;;;-11.14;91.04
47366;BME280;33105;47.964;7.982;2022-12-18T05:29:33;97677.44;;;-10.98;92.00
47366;BME280;33105;47.964;7.982;2022-12-18T05:32:35;97672.56;;;-10.79;92.92
47366;BME280;33105;47.964;7.982;2022-12-18T05:35:36;97658.78;;;-10.58;93.21
47366;BME280;33105;47.964;7.982;2022-12-18T05:38:38;97663.72;;;-10.17;93.81
47366;BME280;33105;47.964;7.982;2022-12-18T05:41:41;97667.63;;;-9.99;93.35
47366;BME280;33105;47.964;7.982;2022-12-18T05:44:44;97661.31;;;-9.85;92.65
47366;BME280;33105;47.964;7.982;2022-12-18T05:47:45;97660.75;;;-9.78;92.85
47366;BME280;33105;47.964;7.982;2022-12-18T05:50:48;97670.19;;;-9.63;92.79
47366;BME280;33105;47.964;7.982;2022-12-18T05:53:50;97663.69;;;-9.70;93.47
47366;BME280;33105;47.964;7.982;2022-12-18T05:56:52;97662.44;;;-9.77;92.57
47366;BME280;33105;47.964;7.982;2022-12-18T05:59:54;97664.53;;;-9.69;92.82
47366;BME280;33105;47.964;7.982;2022-12-18T06:02:56;97664.03;;;-9.63;92.99
47366;BME280;33105;47.964;7.982;2022-12-18T06:05:58;97663.47;;;-9.55;92.70
47366;BME280;33105;47.964;7.982;2022-12-18T06:08:59;97662.50;;;-9.66;92.97
47366;BME280;33105;47.964;7.982;2022-12-18T06:12:02;97663.19;;;-9.64;93.37
47366;BME280;33105;47.964;7.982;2022-12-18T06:15:05;97674.50;;;-9.62;93.15
47366;BME280;33105;47.964;7.982;2022-12-18T06:18:07;97683.66;;;-9.66;92.83
47366;BME280;33105;47.964;7.982;2022-12-18T06:21:08;97691.19;;;-9.72;92.45
47366;BME280;33105;47.964;7.982;2022-12-18T06:24:11;97697.84;;;-9.67;92.94
47366;BME280;33105;47.964;7.982;2022-12-18T06:27:14;97699.97;;;-9.72;92.49
47366;BME280;33105;47.964;7.982;2022-12-18T06:30:15;97709.31;;;-9.79;92.51
47366;BME280;33105;47.964;7.982;2022-12-18T06:33:17;97718.53;;;-9.84;91.80
47366;BME280;33105;47.964;7.982;2022-12-18T06:36:19;97724.97;;;-9.65;92.86
47366;BME280;33105;47.964;7.982;2022-12-18T06:39:21;97722.97;;;-9.85;92.06
47366;BME280;33105;47.964;7.982;2022-12-18T06:42:24;97726.97;;;-9.79;92.76
47366;BME280;33105;47.964;7.982;2022-12-18T06:45:26;97729.72;;;-9.81;92.42
47366;BME280;33105;47.964;7.982;2022-12-18T06:48:28;97727.38;;;-9.73;93.22
47366;BME280;33105;47.964;7.982;2022-12-18T06:51:29;97729.69;;;-9.68;93.23
47366;BME280;33105;47.964;7.982;2022-12-18T06:54:31;97730.34;;;-9.77;92.63
47366;BME280;33105;47.964;7.982;2022-12-18T06:57:33;97724.38;;;-9.68;92.54
47366;BME280;33105;47.964;7.982;2022-12-18T07:00:35;97726.63;;;-9.75;92.96
47366;BME280;33105;47.964;7.982;2022-12-18T07:03:38;97733.91;;;-9.66;92.46
47366;BME280;33105;47.964;7.982;2022-12-18T07:06:40;97732.31;;;-9.68;92.27
47366;BME280;33105;47.964;7.982;2022-12-18T07:09:43;97733.44;;;-9.59;92.25
47366;BME280;33105;47.964;7.982;2022-12-18T07:12:45;97741.47;;;-9.61;92.72
47366;BME280;33105;47.964;7.982;2022-12-18T07:15:47;97735.72;;;-9.55;92.92
47366;BME280;33105;47.964;7.982;2022-12-18T07:18:48;97731.91;;;-9.51;93.28
47366;BME280;33105;47.964;7.982;2022-12-18T07:21:50;97734.88;;;-9.55;92.65
47366;BME280;33105;47.964;7.982;2022-12-18T07:24:52;97725.78;;;-9.51;92.83
47366;BME280;33105;47.964;7.982;2022-12-18T07:27:54;97729.91;;;-9.36;93.26
47366;BME280;33105;47.964;7.982;2022-12-18T07:30:56;97740.00;;;-9.41;91.94
47366;BME280;33105;47.964;7.982;2022-12-18T07:33:57;97744.34;;;-9.40;92.63
47366;BME280;33105;47.964;7.982;2022-12-18T07:37:00;97748.75;;;-9.17;92.88
47366;BME280;33105;47.964;7.982;2022-12-18T07:40:02;97757.88;;;-9.21;92.37
47366;BME280;33105;47.964;7.982;2022-12-18T07:43:03;97765.66;;;-9.31;92.05
47366;BME280;33105;47.964;7.982;2022-12-18T07:46:05;97771.75;;;-9.41;92.32
47366;BME280;33105;47.964;7.982;2022-12-18T07:49:07;97779.31;;;-9.37;92.21
47366;BME280;33105;47.964;7.982;2022-12-18T07:52:09;97783.31;;;-9.42;91.67
47366;BME280;33105;47.964;7.982;2022-12-18T07:55:11;97800.47;;;-9.48;92.70
47366;BME280;33105;47.964;7.982;2022-12-18T07:58:13;97802.28;;;-9.37;92.56
47366;BME280;33105;47.964;7.982;2022-12-18T08:01:14;97812.38;;;-9.18;92.97
47366;BME280;33105;47.964;7.982;2022-12-18T08:04:16;97813.56;;;-9.22;91.93
47366;BME280;33105;47.964;7.982;2022-12-18T08:07:17;97821.06;;;-9.16;92.44
47366;BME280;33105;47.964;7.982;2022-12-18T08:10:20;97810.47;;;-9.16;92.41
47366;BME280;33105;47.964;7.982;2022-12-18T08:13:22;97818.66;;;-9.08;91.91
47366;BME280;33105;47.964;7.982;2022-12-18T08:16:23;97810.22;;;-9.13;91.57
47366;BME280;33105;47.964;7.982;2022-12-18T08:19:25;97817.59;;;-9.06;92.15
47366;BME280;33105;47.964;7.982;2022-12-18T08:22:26;97808.00;;;-8.96;92.82
47366;BME280;33105;47.964;7.982;2022-12-18T08:25:28;97807.06;;;-8.83;92.33
47366;BME280;33105;47.964;7.982;2022-12-18T08:28:30;97801.03;;;-8.85;92.48
47366;BME280;33105;47.964;7.982;2022-12-18T08:31:32;97801.94;;;-8.63;92.95
47366;BME280;33105;47.964;7.982;2022-12-18T08:34:34;97798.97;;;-8.47;92.51
47366;BME280;33105;47.964;7.982;2022-12-18T08:37:36;97789.56;;;-8.40;92.77
47366;BME280;33105;47.964;7.982;2022-12-18T08:40:38;97785.47;;;-8.21;92.22
47366;BME280;33105;47.964;7.982;2022-12-18T08:43:40;97766.78;;;-8.09;92.54
47366;BME280;33105;47.964;7.982;2022-12-18T08:47:01;97751.34;;;-7.93;91.81
47366;BME280;33105;47.964;7.982;2022-12-18T08:50:03;97748.81;;;-7.94;91.81
47366;BME280;33105;47.964;7.982;2022-12-18T08:53:05;97733.72;;;-7.82;91.86
47366;BME280;33105;47.964;7.982;2022-12-18T08:56:07;97727.81;;;-7.86;92.06
47366;BME280;33105;47.964;7.982;2022-12-18T08:59:09;97732.25;;;-7.75;91.85
47366;BME280;33105;47.964;7.982;2022-12-18T09:02:11;97730.91;;;-7.70;91.86
47366;BME280;33105;47.964;7.982;2022-12-18T09:05:12;97724.59;;;-7.58;92.18
47366;BME280;33105;47.964;7.982;2022-12-18T09:08:14;97725.91;;;-7.52;92.07
47366;BME280;33105;47.964;7.982;2022-12-18T09:11:21;97735.19;;;-7.46;92.07
47366;BME280;33105;47.964;7.982;2022-12-18T09:14:23;97741.03;;;-7.32;91.82
47366;BME280;33105;47.964;7.982;2022-12-18T09:17:25;97728.22;;;-7.27;91.81
47366;BME280;33105;47.964;7.982;2022-12-18T09:20:27;97737.78;;;-7.35;91.32
47366;BME280;33105;47.964;7.982;2022-12-18T09:23:31;97738.47;;;-7.22;91.16
47366;BME280;33105;47.964;7.982;2022-12-18T09:26:32;97746.44;;;-7.22;90.95
47366;BME280;33105;47.964;7.982;2022-12-18T09:29:35;97752.16;;;-7.17;91.22
47366;BME280;33105;47.964;7.982;2022-12-18T09:32:37;97748.28;;;-7.13;90.95
47366;BME280;33105;47.964;7.982;2022-12-18T09:35:39;97758.88;;;-7.02;91.35
47366;BME280;33105;47.964;7.982;2022-12-18T09:38:42;97754.16;;;-6.98;90.74
47366;BME280;33105;47.964;7.982;2022-12-18T09:44:50;97766.22;;;-6.73;91.28
47366;BME280;33105;47.964;7.982;2022-12-18T09:47:55;97758.97;;;-6.71;90.79
47366;BME280;33105;47.964;7.982;2022-12-18T09:51:03;97766.66;;;-6.68;90.95
47366;BME280;33105;47.964;7.982;2022-12-18T09:54:12;97780.00;;;-6.59;90.95
47366;BME280;33105;47.964;7.982;2022-12-18T09:57:20;97779.09;;;-6.48;91.21
47366;BME280;33105;47.964;7.982;2022-12-18T10:00:24;97783.09;;;-6.33;91.52
47366;BME280;33105;47.964;7.982;2022-12-18T10:03:27;97777.50;;;-6.30;92.57
47366;BME280;33105;47.964;7.982;2022-12-18T10:10:03;97769.81;;;-5.83;90.31
47366;BME280;33105;47.964;7.982;2022-12-18T10:13:14;97762.03;;;-5.65;89.78
47366;BME280;33105;47.964;7.982;2022-12-18T10:19:59;97768.81;;;-5.32;90.63
47366;BME280;33105;47.964;7.982;2022-12-18T10:26:24;97771.06;;;-5.18;89.81
47366;BME280;33105;47.964;7.982;2022-12-18T10:29:26;97764.78;;;-4.98;92.72
47366;BME280;33105;47.964;7.982;2022-12-18T10:32:30;97750.88;;;-4.92;90.90
47366;BME280;33105;47.964;7.982;2022-12-18T10:35:32;97735.16;;;-4.85;90.80
47366;BME280;33105;47.964;7.982;2022-12-18T10:38:34;97738.25;;;-4.70;91.03
47366;BME280;33105;47.964;7.982;2022-12-18T10:41:36;97730.50;;;-4.54;91.40
47366;BME280;33105;47.964;7.982;2022-12-18T10:44:37;97728.81;;;-4.46;90.63
47366;BME280;33105;47.964;7.982;2022-12-18T10:47:47;97721.84;;;-4.29;91.49
47366;BME280;33105;47.964;7.982;2022-12-18T10:50:50;97722.59;;;-3.99;91.14
47366;BME280;33105;47.964;7.982;2022-12-18T10:54:02;97717.44;;;-3.83;91.35
47366;BME280;33105;47.964;7.982;2022-12-18T10:57:15;97701.59;;;-3.67;91.25
47366;BME280;33105;47.964;7.982;2022-12-18T11:00:27;97702.34;;;-3.47;91.38
47366;BME280;33105;47.964;7.982;2022-12-18T11:03:41;97691.31;;;-3.44;90.85
47366;BME280;33105;47.964;7.982;2022-12-18T11:07:07;97686.00;;;-3.26;90.85
47366;BME280;33105;47.964;7.982;2022-12-18T11:10:18;97681.84;;;-3.03;91.31
47366;BME280;33105;47.964;7.982;2022-12-18T11:13:22;97678.28;;;-3.12;90.75
47366;BME280;33105;47.964;7.982;2022-12-18T11:16:25;97681.63;;;-3.10;91.34
47366;BME280;33105;47.964;7.982;2022-12-18T11:19:37;97679.25;;;-3.13;90.77
47366;BME280;33105;47.964;7.982;2022-12-18T11:22:41;97679.94;;;-3.11;91.16
47366;BME280;33105;47.964;7.982;2022-12-18T11:26:02;97681.84;;;-3.03;91.24
47366;BME280;33105;47.964;7.982;2022-12-18T11:29:10;97678.47;;;-2.87;91.49
47366;BME280;33105;47.964;7.982;2022-12-18T11:35:21;97681.59;;;-2.92;93.50
47366;BME280;33105;47.964;7.982;2022-12-18T11:38:33;97671.53;;;-2.72;93.13
47366;BME280;33105;47.964;7.982;2022-12-18T11:41:47;97678.75;;;-2.72;94.03
47366;BME280;33105;47.964;7.982;2022-12-18T11:48:44;97677.41;;;-2.51;92.58
47366;BME280;33105;47.964;7.982;2022-12-18T11:51:51;97679.25;;;-2.43;90.75
47366;BME280;33105;47.964;7.982;2022-12-18T11:54:58;97680.94;;;-2.42;91.30
47366;BME280;33105;47.964;7.982;2022-12-18T12:01:35;97676.63;;;-2.35;90.27
47366;BME280;33105;47.964;7.982;2022-12-18T12:04:43;97675.28;;;-2.39;92.07
47366;BME280;33105;47.964;7.982;2022-12-18T12:08:17;97655.97;;;-2.25;90.76
47366;BME280;33105;47.964;7.982;2022-12-18T12:11:44;97662.38;;;-2.10;91.25
47366;BME280;33105;47.964;7.982;2022-12-18T12:15:11;97663.53;;;-2.12;90.94
47366;BME280;33105;47.964;7.982;2022-12-18T12:18:56;97652.84;;;-2.12;92.06
47366;BME280;33105;47.964;7.982;2022-12-18T12:22:30;97650.53;;;-2.07;93.56
47366;BME280;33105;47.964;7.982;2022-12-18T12:25:52;97653.34;;;-2.09;90.84
47366;BME280;33105;47.964;7.982;2022-12-18T12:32:54;97656.34;;;-2.12;90.84
47366;BME280;33105;47.964;7.982;2022-12-18T12:36:06;97646.47;;;-2.11;92.25
47366;BME280;33105;47.964;7.982;2022-12-18T12:39:13;97646.75;;;-2.22;92.96
47366;BME280;33105;47.964;7.982;2022-12-18T12:42:35;97656.66;;;-2.23;93.66
47366;BME280;33105;47.964;7.982;2022-12-18T12:46:06;97671.94;;;-2.07;91.45
47366;BME280;33105;47.964;7.982;2022-12-18T12:49:15;97662.75;;;-2.04;91.85
47366;BME280;33105;47.964;7.982;2022-12-18T12:52:37;97662.22;;;-2.08;92.00
47366;BME280;33105;47.964;7.982;2022-12-18T12:55:42;97650.31;;;-2.14;93.06
47366;BME280;33105;47.964;7.982;2022-12-18T12:59:12;97652.41;;;-2.33;93.57
47366;BME280;33105;47.964;7.982;2022-12-18T13:08:58;97658.28;;;-1.88;92.82
47366;BME280;33105;47.964;7.982;2022-12-18T13:12:04;97655.41;;;-1.94;92.32
47366;BME280;33105;47.964;7.982;2022-12-18T13:15:33;97651.03;;;-2.03;93.04
47366;BME280;33105;47.964;7.982;2022-12-18T13:18:36;97640.91;;;-2.26;93.01
47366;BME280;33105;47.964;7.982;2022-12-18T13:21:38;97642.50;;;-2.07;94.23
47366;BME280;33105;47.964;7.982;2022-12-18T13:24:39;97641.91;;;-2.19;93.37
47366;BME280;33105;47.964;7.982;2022-12-18T13:27:59;97633.28;;;-2.04;92.59
47366;BME280;33105;47.964;7.982;2022-12-18T13:31:09;97622.28;;;-1.93;92.47
47366;BME280;33105;47.964;7.982;2022-12-18T13:34:20;97623.94;;;-1.92;92.60
47366;BME280;33105;47.964;7.982;2022-12-18T13:37:43;97620.63;;;-1.86;93.22
47366;BME280;33105;47.964;7.982;2022-12-18T13:43:49;97610.28;;;-1.81;93.89
47366;BME280;33105;47.964;7.982;2022-12-18T13:46:53;97607.78;;;-1.75;92.60
47366;BME280;33105;47.964;7.982;2022-12-18T13:49:56;97616.63;;;-1.82;93.00
47366;BME280;33105;47.964;7.982;2022-12-18T13:53:03;97615.31;;;-1.78;94.38
47366;BME280;33105;47.964;7.982;2022-12-18T13:56:05;97624.81;;;-1.84;92.82
47366;BME280;33105;47.964;7.982;2022-12-18T14:02:25;97626.94;;;-1.95;93.21
47366;BME280;33105;47.964;7.982;2022-12-18T14:05:37;97622.19;;;-2.18;94.67
47366;BME280;33105;47.964;7.982;2022-12-18T14:08:40;97619.22;;;-2.07;94.72
47366;BME280;33105;47.964;7.982;2022-12-18T14:11:49;97616.19;;;-2.12;95.54
47366;BME280;33105;47.964;7.982;2022-12-18T14:14:53;97614.97;;;-2.25;95.10
47366;BME280;33105;47.964;7.982;2022-12-18T14:21:02;97621.66;;;-2.21;95.80
47366;BME280;33105;47.964;7.982;2022-12-18T14:24:21;97617.84;;;-2.19;95.21
47366;BME280;33105;47.964;7.982;2022-12-18T14:27:25;97613.09;;;-2.33;95.80
47366;BME280;33105;47.964;7.982;2022-12-18T14:30:31;97612.94;;;-2.31;96.11
47366;BME280;33105;47.964;7.982;2022-12-18T14:33:34;97623.66;;;-2.31;95.11
47366;BME280;33105;47.964;7.982;2022-12-18T14:36:36;97616.25;;;-2.37;94.79
47366;BME280;33105;47.964;7.982;2022-12-18T14:39:37;97615.56;;;-2.48;95.51
47366;BME280;33105;47.964;7.982;2022-12-18T14:42:41;97609.31;;;-2.56;95.47
47366;BME280;33105;47.964;7.982;2022-12-18T14:45:44;97615.13;;;-2.61;95.18
47366;BME280;33105;47.964;7.982;2022-12-18T14:48:47;97608.41;;;-2.65;95.83
47366;BME280;33105;47.964;7.982;2022-12-18T14:51:54;97618.91;;;-2.71;95.54
47366;BME280;33105;47.964;7.982;2022-12-18T14:54:56;97622.22;;;-2.78;95.74
47366;BME280;33105;47.964;7.982;2022-12-18T14:57:58;97619.66;;;-2.87;95.42
47366;BME280;33105;47.964;7.982;2022-12-18T15:01:00;97616.59;;;-2.92;95.64
47366;BME280;33105;47.964;7.982;2022-12-18T15:04:03;97633.91;;;-3.04;95.90
47366;BME280;33105;47.964;7.982;2022-12-18T15:10:19;97645.28;;;-3.20;95.52
47366;BME280;33105;47.964;7.982;2022-12-18T15:13:23;97648.22;;;-3.31;95.25
47366;BME280;33105;47.964;7.982;2022-12-18T15:16:26;97645.69;;;-3.33;95.97
47366;BME280;33105;47.964;7.982;2022-12-18T15:19:35;97659.81;;;-3.40;95.72
47366;BME280;33105;47.964;7.982;2022-12-18T15:22:38;97660.50;;;-3.38;95.83
47366;BME280;33105;47.964;7.982;2022-12-18T15:25:40;97668.50;;;-3.38;95.69
47366;BME280;33105;47.964;7.982;2022-12-18T15:28:50;97668.59;;;-3.48;95.51
47366;BME280;33105;47.964;7.982;2022-12-18T15:32:00;97675.38;;;-3.54;95.60
47366;BME280;33105;47.964;7.982;2022-12-18T15:38:13;97688.94;;;-3.65;95.53
47366;BME280;33105;47.964;7.982;2022-12-18T15:41:16;97678.25;;;-3.65;95.68
47366;BME280;33105;47.964;7.982;2022-12-18T15:44:23;97685.50;;;-3.75;95.46
47366;BME280;33105;47.964;7.982;2022-12-18T15:47:28;97688.47;;;-3.78;95.82
47366;BME280;33105;47.964;7.982;2022-12-18T15:50:29;97686.69;;;-4.15;96.16
47366;BME280;33105;47.964;7.982;2022-12-18T15:53:32;97689.25;;;-3.95;96.60
47366;BME280;33105;47.964;7.982;2022-12-18T15:56:35;97685.38;;;-4.01;96.02
47366;BME280;33105;47.964;7.982;2022-12-18T15:59:57;97683.28;;;-4.07;96.12
47366;BME280;33105;47.964;7.982;2022-12-18T16:02:59;97685.44;;;-3.93;95.85
47366;BME280;33105;47.964;7.982;2022-12-18T16:06:02;97692.16;;;-3.89;95.97
47366;BME280;33105;47.964;7.982;2022-12-18T16:09:04;97696.66;;;-3.89;95.90
47366;BME280;33105;47.964;7.982;2022-12-18T16:12:17;97693.22;;;-3.99;95.94
47366;BME280;33105;47.964;7.982;2022-12-18T16:15:19;97690.72;;;-4.01;96.24
47366;BME280;33105;47.964;7.982;2022-12-18T16:18:21;97687.78;;;-4.07;95.94
47366;BME280;33105;47.964;7.982;2022-12-18T16:21:23;97687.50;;;-4.04;96.08
47366;BME280;33105;47.964;7.982;2022-12-18T16:24:31;97688.63;;;-4.07;96.09
47366;BME280;33105;47.964;7.982;2022-12-18T16:27:33;97679.19;;;-4.01;96.42
47366;BME280;33105;47.964;7.982;2022-12-18T16:30:34;97670.81;;;-3.89;96.36
47366;BME280;33105;47.964;7.982;2022-12-18T16:33:36;97670.53;;;-3.86;96.36
47366;BME280;33105;47.964;7.982;2022-12-18T16:36:37;97672.75;;;-3.81;96.48
47366;BME280;33105;47.964;7.982;2022-12-18T16:39:40;97669.13;;;-3.90;96.08
47366;BME280;33105;47.964;7.982;2022-12-18T16:42:43;97662.38;;;-3.84;96.18
47366;BME280;33105;47.964;7.982;2022-12-18T16:45:46;97658.31;;;-3.88;96.26
47366;BME280;33105;47.964;7.982;2022-12-18T16:48:49;97664.75;;;-3.81;96.82
47366;BME280;33105;47.964;7.982;2022-12-18T16:51:50;97652.81;;;-3.87;96.55
47366;BME280;33105;47.964;7.982;2022-12-18T16:54:52;97645.81;;;-3.88;96.38
47366;BME280;33105;47.964;7.982;2022-12-18T16:57:54;97648.56;;;-3.80;96.93
47366;BME280;33105;47.964;7.982;2022-12-18T17:00:56;97646.75;;;-3.79;96.76
47366;BME280;33105;47.964;7.982;2022-12-18T17:04:00;97645.75;;;-3.78;97.21
47366;BME280;33105;47.964;7.982;2022-12-18T17:07:02;97655.44;;;-3.77;97.63
47366;BME280;33105;47.964;7.982;2022-12-18T17:10:04;97659.03;;;-3.68;97.41
47366;BME280;33105;47.964;7.982;2022-12-18T17:13:06;97658.03;;;-3.67;97.25
47366;BME280;33105;47.964;7.982;2022-12-18T17:16:08;97654.91;;;-3.63;97.45
47366;BME280;33105;47.964;7.982;2022-12-18T17:19:10;97645.16;;;-3.72;97.39
47366;BME280;33105;47.964;7.982;2022-12-18T17:22:11;97652.00;;;-3.69;97.24
47366;BME280;33105;47.964;7.982;2022-12-18T17:25:13;97643.16;;;-3.70;97.63
47366;BME280;33105;47.964;7.982;2022-12-18T17:28:16;97643.25;;;-3.62;97.11
47366;BME280;33105;47.964;7.982;2022-12-18T17:31:20;97639.13;;;-3.56;97.09